Willard, Kentucky
Current Conditions -  °F | °C
As of 3:51 AM on Saturday 25 Oct 2014 (Local Time) from KHTS Reporting Station
Clear Clear  
Wind Chill: 40°   Ceiling: Unl
Heat Index: 43°   Visibility: 10mi
Dew Point: 42°   Wind: 5mph
Humidity: 97%   Direction: 210°SSW
Pressure: 30.04"   Gusts: NA
Location:  38.21°N, 82.9°W
Report Text: KHTS 250751Z 21004KT 10SM CLR 06/06 A3004 RMK AO2 SLP171 T00610056
Loading
Personal Weather Stations






























Interactive Weather Map
Tropical Storm Tracking
New forecast layout! Learn more

10-Day Weather Forecast

Advertisements
Track Severe Weather on mobile